Tiempo atmosférico en la estación meteorológica de Hinojosa Del Duque, Córdoba (540 m.)



Fecha
DESCASC
Temp. máxima en grados centígrados (hora)
DESCASC
Temp. mínima en grados centígrados (hora)
DESCASC
Temp. media en grados centígrados
DESCASC
Racha de viento máxima en m/sg (hora)
DESCASC
Velocidad máxima media en intervalos de 10 minutos(hora)
DESCASC
Precipitaciones diarias en mm
DESCASC
Precipitaciones de 00:00 a 06:00 en mm
DESCASC
Precipitaciones de 06:00 a 12:00 en mm
DESCASC
Precipitaciones de 12:00 a 18:00 en mm
DESCASC
Precipitaciones de 18:00 a 24:00 en mm
DESCASC
22-01-2020 11.3 (15:30) 2.2 (01:00) 6.8 5.83 (12:30) 3.61 (12:30) 3.4 2.7 0.7 0 0
21-01-2020 7.7 (14:40) 2.4 (08:40) 5 10.83 (06:40) 7.22 (06:40) 0.1 0 0 0.1 0
20-01-2020 7.3 (16:20) 3.5 (12:20) 5.4 15 (14:00) 9.72 (14:00) 0 0 0 0 0
19-01-2020 10 (00:00) 4.5 (00:00) 7.3 13.89 (19:50) 9.44 (19:40) 0 0 0 0 0
18-01-2020 12.5 (16:00) 6.7 (00:00) 9.6 11.39 (23:00) 8.33 (23:10) 6.3 0 5.9 0.4 0
17-01-2020 14.8 (15:20) 6.7 (00:00) 10.8 5.28 (01:10) 3.89 (14:20) 0 0 0 0 0
16-01-2020 16.3 (15:20) 1.6 (00:00) 8.9 7.22 (14:10) 4.44 (14:10) 0.1 0.1 0 0 0
15-01-2020 14 (16:10) 1 (00:00) 7.5 8.06 (13:00) 5.28 (14:10) 0.2 0 0 0 0.2
14-01-2020 12.7 (15:40) -1.9 (-00:0) 5.4 5.56 (19:20) 3.33 (19:20) 0.1 0 0.1 0 0
13-01-2020 11.7 (14:50) -1.8 (-00:0) 4.9 4.72 (14:20) 3.33 (16:00) 0 0 0 0 0
12-01-2020 13.4 (15:30) -1.6 (-00:0) 5.9 3.06 (16:20) 1.67 (00:40) 0 0 0 0 0
11-01-2020 12.4 (17:00) -0.1 (00:00) 6.1 5 (03:20) 3.61 (03:20) 0 0 0 0 0
10-01-2020 12.4 (15:20) 2.5 (00:00) 7.4 8.33 (16:30) 5 (16:20) 0 0 0 0 0
09-01-2020 13.8 (16:20) 0 (00:00) 6.9 5.56 (13:40) 3.61 (13:40) 0 0 0 0 0
08-01-2020 15.9 (16:30) 0.7 (00:00) 8.3 2.5 (05:30) 1.94 (05:30) 0 0 0 0 0
07-01-2020 14.8 (16:30) -1 (-00:0) 6.9 3.61 (15:10) 2.22 (14:50) 0 0 0 0 0
06-01-2020 14 (15:20) -1.1 (-00:0) 6.4 3.06 (16:40) 2.5 (16:40) 0.1 0 0.1 0 0
05-01-2020 13.3 (17:50) -1.5 (-00:0) 5.9 3.33 (15:10) 1.67 (02:30) 0.1 0 0.1 0 0
04-01-2020 11.2 (15:30) 0.8 (00:00) 6 5.83 (16:50) 4.17 (12:00) 0.1 0.1 0 0 0
03-01-2020 9.5 (14:30) 2.5 (00:00) 6 4.17 (14:40) 2.78 (14:50) 0 0 0 0 0
02-01-2020 15.7 (15:00) 0.9 (00:00) 8.3 4.72 (16:00) 2.78 (15:40) 0 0 0 0 0
01-01-2020 14.3 (16:30) -0.4 (00:00) 7 2.5 (15:00) 1.67 (02:50) 0 0 0 0 0
31-12-2019 14.1 (16:30) -1.1 (-00:0) 6.5 3.33 (11:10) 2.22 (11:10) 0 0 0 0 0
30-12-2019 14 (16:10) -0.4 (00:00) 6.8 2.78 (14:30) 2.22 (07:10) 0 0 0 0 0
29-12-2019 15.6 (16:30) 3.1 (00:00) 9.4 3.61 (20:40) 2.78 (20:50) 0 0 0 0 0
28-12-2019 16.8 (15:20) 3.1 (00:00) 9.9 3.33 (15:20) 1.67 (15:20) 0 0 0 0 0
27-12-2019 17.2 (16:00) 4.6 (00:00) 10.9 3.06 (11:50) 2.22 (11:40) 0 0 0 0 0
26-12-2019 14.7 (13:50) 5.4 (00:00) 10 3.33 (15:10) 2.5 (17:50) 0 0 0 0 0
25-12-2019 17.6 (15:10) 3.5 (00:00) 10.6 2.78 (04:20) 2.22 (04:20) 0 0 0 0 0

Gráficas

Temp. máximas Temp. mínimas Temp. medias Precipitaciones Rachas de viento máximas Velocidades máximas media en intervalos de 10 minutos

Datos horarios

Fecha y hora oficial Temperatura (ºC) Velocidad del viento (km/h) Dirección del viento Racha (km/h) Dirección de racha Precipitación (mm) Presión (hPa) Tendencia (hPa) Humedad (%)
2020-01-23 23:00:00 7.8 11 Sudeste 17 Sudeste 0.5 954 1.1 90
2020-01-23 22:00:00 8.1 12 Sur 17 Sur 0.3 953.8 1.4 89
2020-01-23 21:00:00 8 8 Sudeste 13 Sudeste 0.3 953.4 1.4 90
2020-01-23 20:00:00 8.4 9 Sudeste 17 Sudeste 0 952.9 1.2 86
2020-01-23 19:00:00 8.6 13 Sudeste 28 Sudeste 0.1 952.4 0.8 83
2020-01-23 18:00:00 9.5 19 Sudeste 29 Sudeste 0 952 0.1 75
2020-01-23 17:00:00 9.8 19 Sudeste 32 Sudeste 0 951.7 -0.5 74
2020-01-23 16:00:00 9.8 14 Sudeste 30 Sur 0 951.6 -0.8 78
2020-01-23 15:00:00 9.8 21 Sudeste 33 Sudeste 0 951.9 -1.2 77
2020-01-23 14:00:00 9.9 19 Sudeste 35 Sudeste 0 952.2 -0.5 77
2020-01-23 13:00:00 10 23 Sudeste 38 Sur 0 952.4 0.2 75
2020-01-23 12:00:00 9.4 17 Sudeste 24 Sudeste 0 953.1 1.2 79
2020-01-23 11:00:00 8.3 14 Sudeste 22 Este 0 952.7 1.2 84
2020-01-23 10:00:00 7.3 14 Sudeste 21 Sudeste 0 952.2 0.8 87
2020-01-23 09:00:00 6.2 12 Sudeste 23 Sudeste 0 951.9 0.7 91
2020-01-23 08:00:00 5.7 14 Sudeste 20 Sudeste 0 951.5 0 93
2020-01-23 07:00:00 5.5 9 Sudeste 14 Sudeste 0 951.4 -0.1 92
2020-01-23 06:00:00 5.5 10 Sudeste 18 Sudeste 0 951.2 -0.5 91
2020-01-23 05:00:00 6.1 13 Sudeste 19 Sudeste 0 951.5 -0.4 90
2020-01-23 04:00:00 6.4 12 Sudeste 17 Sudeste 0 951.5 -0.4 87
2020-01-23 03:00:00 7.2 11 Sudeste 19 Sudeste 0 951.7 -0.3 87
2020-01-23 02:00:00 5.9 7 Sudeste 11 Sudeste 0 951.9 0.4 92
2020-01-23 01:00:00 6 7 Sudeste 10 Sudeste 0 951.9 0.4 91
2020-01-23 00:00:00 6 7 Sudeste 12 Este 0 952 0.4 89
2020-01-22 23:00:00 6.3 10 Este 12 Este 0 951.5 0.6 88
2020-01-22 22:00:00 7 8 Sudeste 10 Sur 0 951.5 1.1 86
2020-01-22 21:00:00 6 8 Sur 11 Sur 0 951.6 1.4 88
2020-01-22 20:00:00 7.2 5 Sudeste 9 Sudeste 0 950.9 0.5 82
2020-01-22 19:00:00 7.8 7 Este 10 Este 0 950.4 0.2 83
2020-01-22 18:00:00 9.3 7 Este 14 Este 0 950.2 -0.4 78
2020-01-22 17:00:00 10.5 6 Este 17 Sudeste 0 950.4 -0.7 68
2020-01-22 16:00:00 10.9 8 Sudeste 17 Sudeste 0 950.2 -1.5 64
2020-01-22 15:00:00 10.5 12 Sudeste 20 Sudeste 0 950.6 -1.5 67
2020-01-22 14:00:00 10.7 9 Sudeste 19 Sur 0 951.1 -0.9 70
2020-01-22 13:00:00 9.9 9 Sudeste 21 Este 0 951.7 0 77
2020-01-22 12:00:00 8.5 10 Este 16 Este 0 952.1 0.8 86
2020-01-22 11:00:00 6.3 11 Este 17 Sudeste 0 952 1.2 94
2020-01-22 10:00:00 5 11 Este 14 Este 0.1 951.7 1.4 97
2020-01-22 09:00:00 4.6 8 Este 11 Este 0.3 951.3 1.2 97
2020-01-22 08:00:00 4.3 7 Este 12 Este 0.2 950.8 0.5 97
2020-01-22 07:00:00 4.3 7 Este 10 Sudeste 0.1 950.3 -0.3 97
2020-01-22 06:00:00 4.4 8 Este 13 Este 0.5 950.1 -0.4 96
2020-01-22 05:00:00 4.4 8 Este 12 Este 1.5 950.3 -0.2 96
2020-01-22 04:00:00 4.1 6 Este 9 Nordeste 0.7 950.6 0.1 95
2020-01-22 03:00:00 3.9 6 Este 10 Este 0 950.5 -0.1 93
2020-01-22 02:00:00 3 6 Este 8 Este 0 950.5 0.4 95
2020-01-22 01:00:00 2.3 2 Sudeste 6 Este 0 950.5 0.8 94
2020-01-22 00:00:00 3.3 3 Este 16 Este 0 950.6 0.9 89
2020-01-21 23:00:00 4.1 10 Este 15 Este 0 950.1 0.5 89
2020-01-21 22:00:00 3.7 4 Nordeste 16 Nordeste 0 949.7 0.3 88
2020-01-21 21:00:00 6 14 Nordeste 28 Nordeste 0 949.7 0.7 82
2020-01-21 20:00:00 6.8 17 Este 26 Este 0 949.6 1 79
2020-01-21 19:00:00 7 14 Este 26 Este 0 949.4 0.6 77
2020-01-21 18:00:00 6.7 8 Nordeste 14 Norte 0.1 949 0.2 79
2020-01-21 17:00:00 6.4 10 Este 23 Este 0 948.6 -0.9 84
2020-01-21 16:00:00 7.4 13 Este 27 Nordeste 0 948.8 -1.8 71
2020-01-21 15:00:00 7.4 12 Nordeste 36 Nordeste 0 948.8 -2.7 70
2020-01-21 14:00:00 7.5 13 Nordeste 25 Nordeste 0 949.5 -1.8 73
2020-01-21 13:00:00 5.6 14 Nordeste 22 Nordeste 0 950.6 -0.8 76
2020-01-21 12:00:00 5.5 16 Nordeste 29 Nordeste 0 951.5 -0.1 74
2020-01-21 11:00:00 5.9 18 Nordeste 29 Nordeste 0 951.3 -0.1 69
2020-01-21 10:00:00 4.9 13 Nordeste 22 Nordeste 0 951.4 0.4 69
2020-01-21 09:00:00 3.2 4 Nordeste 15 Nordeste 0 951.6 0.1 76
2020-01-21 08:00:00 4.2 6 Nordeste 37 Nordeste 0 951.4 -0.8 71
2020-01-21 07:00:00 5.2 24 Nordeste 39 Este 0 951 -1.3 68
2020-01-21 06:00:00 5.4 21 Nordeste 33 Nordeste 0 951.5 -1.1 68
2020-01-21 05:00:00 5.2 12 Nordeste 27 Nordeste 0 952.2 -1.2 66
2020-01-21 04:00:00 4.7 9 Nordeste 38 Nordeste 0 952.3 -1.4 68
2020-01-21 03:00:00 5.7 22 Nordeste 38 Nordeste 0 952.6 -1.5 66
2020-01-21 02:00:00 5.7 17 Este 34 Nordeste 0 953.4 -0.5 66
2020-01-21 01:00:00 5.3 22 Nordeste 37 Nordeste 0 953.7 0 69
2020-01-21 00:00:00 5.4 19 Este 35 Nordeste 0 954.1 0.4 70
2020-01-20 23:00:00 5.6 17 Nordeste 39 Nordeste 0 953.9 0.6 71
2020-01-20 22:00:00 5.5 24 Nordeste 39 Nordeste 0 953.7 0.4 70
2020-01-20 21:00:00 5.3 17 Este 39 Nordeste 0 953.7 0.6 71
2020-01-20 20:00:00 5.1 24 Este 40 Este 0 953.3 1.5 72
2020-01-20 19:00:00 5.9 25 Nordeste 36 Nordeste 0 953.3 0.6 68
2020-01-20 18:00:00 6.1 20 Nordeste 45 Nordeste 0 953.1 0.5 65
2020-01-20 17:00:00 6.8 32 Nordeste 49 Este 0 951.8 -1.5 59
2020-01-20 16:00:00 6.2 20 Este 41 Nordeste 0 952.7 -1.6 59
2020-01-20 15:00:00 6.6 26 Nordeste 48 Este 0 952.6 -2 54
2020-01-20 14:00:00 5 35 Nordeste 54 Nordeste 0 953.3 -1.6 59
2020-01-20 13:00:00 4.4 26 Nordeste 46 Nordeste 0 954.3 0.1 65
2020-01-20 12:00:00 3.7 29 Este 50 Este 0 954.6 0.3 64
2020-01-20 11:00:00 3.9 23 Este 50 Este 0 954.9 0.8 59
2020-01-20 10:00:00 3.9 23 Este 45 Nordeste 0 954.2 -0.1 54
2020-01-20 09:00:00 3.9 23 Este 40 Este 0 954.3 -0.1 54
2020-01-20 08:00:00 3.7 23 Este 37 Nordeste 0 954.1 -1 55
2020-01-20 07:00:00 4.5 22 Este 51 Este 0 954.3 -1.2 53
2020-01-20 06:00:00 4.4 26 Nordeste 39 Nordeste 0 954.4 -1.6 53
2020-01-20 05:00:00 4.6 17 Nordeste 43 Nordeste 0 955.1 -1.6 51
2020-01-20 04:00:00 4.5 15 Este 37 Este 0 955.5 -0.9 53
2020-01-20 03:00:00 4.5 13 Nordeste 33 Nordeste 0 956 -0.5 54
2020-01-20 02:00:00 4.4 17 Nordeste 44 Nordeste 0 956.7 0.4 58
2020-01-20 01:00:00 4.7 18 Nordeste 49 Nordeste 0 956.4 0.2 61
2020-01-20 00:00:00 5.4 24 Nordeste 46 Nordeste 0 956.5 0.4 53
2020-01-19 23:00:00 5.2 20 Nordeste 41 Este 0 956.3 0.6 65
2020-01-19 22:00:00 4.7 9 Este 27 Nordeste 0 956.2 0.6 74
2020-01-19 21:00:00 5.5 16 Nordeste 37 Este 0 956.1 1.3 69
2020-01-19 20:00:00 5.4 29 Este 50 Este 0 955.7 1.1 74
2020-01-19 19:00:00 7.3 23 Este 44 Nordeste 0 955.6 0.8 60
2020-01-19 18:00:00 8.9 17 Nordeste 38 Nordeste 0 954.8 0.2 51
2020-01-19 17:00:00 9.2 14 Norte 33 Norte 0 954.6 -0.7 61
2020-01-19 16:00:00 9.3 18 Norte 31 Nordeste 0 954.8 -0.9 61
2020-01-19 15:00:00 9.3 19 Norte 30 Norte 0 954.6 -1.7 68
2020-01-19 14:00:00 9 17 Norte 36 Norte 0 955.3 -1 73
2020-01-19 13:00:00 9.1 21 Noroeste 29 Noroeste 0 955.7 -0.4 77
2020-01-19 12:00:00 9.2 17 Noroeste 24 Noroeste 0 956.3 0.2 78
2020-01-19 11:00:00 7.9 17 Noroeste 24 Noroeste 0 956.3 0.4 87
2020-01-19 10:00:00 6.4 13 Noroeste 19 Noroeste 0 956.1 0.4 93
2020-01-19 09:00:00 5 13 Noroeste 18 Noroeste 0 956.1 0.3 95
2020-01-19 08:00:00 6 10 Noroeste 21 Noroeste 0 955.9 0 92
2020-01-19 07:00:00 7 16 Noroeste 21 Oeste 0 955.7 -1 89
2020-01-19 06:00:00 6.6 16 Oeste 29 Oeste 0 955.8 -1.2 88
2020-01-19 05:00:00 6.6 19 Oeste 25 Oeste 0 955.9 -1.6 89
2020-01-19 04:00:00 7.3 22 Noroeste 31 Noroeste 0 956.7 -1.6 89
2020-01-19 03:00:00 8.4 26 Noroeste 33 Noroeste 0 957 -2.1 85
2020-01-19 02:00:00 9 19 Oeste 32 Oeste 0 957.5 -1.7 85
2020-01-19 01:00:00 8.9 22 Oeste 33 Oeste 0 958.3 -0.6 82
2020-01-19 00:00:00 10 28 Oeste 40 Oeste 0 959.1 0.7 81
2020-01-18 23:00:00 11 28 Noroeste 41 Noroeste 0 959.2 0.1 83
2020-01-18 22:00:00 11 19 Oeste 30 Oeste 0 958.9 -0.6 92
2020-01-18 21:00:00 11 23 Sudoeste 35 Sudoeste 0 958.4 -1.9 94
2020-01-18 20:00:00 11.2 13 Sudoeste 27 Sudoeste 0 959.1 -1.3 93
2020-01-18 19:00:00 11.4 16 Sudoeste 26 Sudoeste 0 959.5 -1.6 94
2020-01-18 18:00:00 11.6 13 Sudoeste 26 Sudoeste 0 960.3 -1.4 93
2020-01-18 17:00:00 11.7 17 Sudoeste 34 Sudoeste 0 960.4 -2 90
2020-01-18 16:00:00 12.5 24 Sudoeste 32 Sudoeste 0 961.1 -2.7 87
2020-01-18 15:00:00 11.2 16 Sudoeste 30 Sudoeste 0 961.7 -2.7 90
2020-01-18 14:00:00 11.1 18 Sudoeste 26 Sudoeste 0 962.4 -2.7 91
2020-01-18 13:00:00 10 11 Sur 24 Sur 0.4 963.8 -1.2 92
2020-01-18 12:00:00 9.5 14 Sur 26 Sur 2.8 964.4 -0.6 92
2020-01-18 11:00:00 9.4 11 Sudeste 21 Sudeste 0.4 965.1 0.1 93
2020-01-18 10:00:00 9.3 12 Sudeste 18 Sudeste 0.4 965 0 93
2020-01-18 09:00:00 9.4 12 Sur 17 Sur 0.9 965 0.7 92
2020-01-18 08:00:00 9.3 9 Sur 14 Sur 1.3 965 0.2 92
2020-01-18 07:00:00 8.8 6 Noroeste 10 Oeste 0.1 965 -0.4 91
2020-01-18 06:00:00 8.4 8 Sur 16 Sudeste 0 964.3 -1.8 89
2020-01-18 05:00:00 7.4 6 Sudeste 10 Sudeste 0 964.8 -2.1 92
2020-01-18 04:00:00 6.9 6 Sudeste 9 Este 0 965.4 -1.6 93
2020-01-18 03:00:00 7 3 Este 6 Noroeste 0 966.1 -1 92
2020-01-18 02:00:00 8.1 5 Noroeste 9 Sudoeste 0 966.9 -0.3 86
2020-01-18 01:00:00 7.4 6 Sur 8 Sudeste 0 967 -0.5 89
2020-01-18 00:00:00 7.2 5 Sur 8 Sur 0 967.1 -0.6 90
2020-01-17 23:00:00 7.3 5 Sur 8 Sudeste 0 967.2 -0.3 90
2020-01-17 22:00:00 7.2 2 Sur 5 Sudeste 0 967.5 0.8 90
2020-01-17 21:00:00 7.9 0 Calma 5 Noroeste 0 967.7 1.2 87
2020-01-17 20:00:00 8.7 3 Noroeste 5 Norte 0 967.5 0.9 83
2020-01-17 19:00:00 10 4 Norte 7 Noroeste 0 966.7 0.3 78
2020-01-17 18:00:00 11.3 6 Noroeste 16 Noroeste 0 966.5 0 73
2020-01-17 17:00:00 13.6 11 Noroeste 16 Noroeste 0 966.6 -0.2 66
2020-01-17 16:00:00 13.5 14 Noroeste 19 Noroeste 0 966.4 -1 67
2020-01-17 15:00:00 13.9 12 Noroeste 18 Noroeste 0 966.5 -1.4 59
2020-01-17 14:00:00 13.6 5 Noroeste 19 Oeste 0 966.8 -1.1 64
2020-01-17 13:00:00 13.8 8 Oeste 15 Oeste 0 967.4 0.3 65
2020-01-17 12:00:00 12.3 5 Oeste 13 Oeste 0 967.9 1.4 76
2020-01-17 11:00:00 11.2 12 Oeste 17 Oeste 0 967.9 2.4 83
2020-01-17 10:00:00 9.9 9 Oeste 13 Oeste 0 967.1 2.3 90
2020-01-17 09:00:00 8.2 8 Sudoeste 12 Oeste 0 966.5 2 96
2020-01-17 08:00:00 8.2 6 Sudoeste 13 Oeste 0 965.5 1.4 92
2020-01-17 07:00:00 9.3 9 Sudoeste 17 Sudoeste 0 964.8 0.5 90
2020-01-17 06:00:00 10 7 Sudoeste 17 Sudoeste 0 964.5 0.4 87
2020-01-17 05:00:00 9.4 7 Sur 10 Sudoeste 0 964.1 0.3 83
2020-01-17 04:00:00 8.9 3 Sudeste 6 Sudoeste 0 964.3 -0.1 77
2020-01-17 03:00:00 9.8 5 Sudoeste 13 Sudoeste 0 964.1 -0.3 67
2020-01-17 02:00:00 9.6 11 Sur 19 Sudoeste 0 963.8 0.1 65
2020-01-17 01:00:00 9.5 9 Sudoeste 12 Sudoeste 0 964.4 0.9 61
2020-01-17 00:00:00 9.6 6 Sudoeste 20 Sudoeste 0 964.4 1.1 62
2020-01-16 23:00:00 9.4 15 Sudoeste 21 Sur 0 963.7 0.9 63
2020-01-16 22:00:00 7.3 12 Sur 15 Sur 0 963.5 1.4 71
2020-01-16 21:00:00 9 12 Sur 21 Sudoeste 0 963.3 1.3 62
2020-01-16 20:00:00 9.9 14 Sudoeste 21 Sudoeste 0 962.8 1.1 56
2020-01-16 19:00:00 10.5 9 Sur 12 Sudeste 0 962.1 0.4 57
2020-01-16 18:00:00 13.8 7 Sudoeste 19 Sur 0 962 0 46
2020-01-16 17:00:00 15.4 13 Sur 19 Sudoeste 0 961.7 -0.8 40
2020-01-16 16:00:00 16 13 Sudoeste 24 Sudoeste 0 961.7 -1.5 36
2020-01-16 15:00:00 15.9 15 Sudoeste 26 Sudoeste 0 962 -1.7 34
2020-01-16 14:00:00 15.6 15 Sudoeste 24 Sudoeste 0 962.5 -1.2 35
2020-01-16 13:00:00 15.3 12 Sudoeste 21 Sudoeste 0 963.2 -0.3 45
2020-01-16 12:00:00 11.6 3 Este 8 Este 0 963.7 0.6 72
2020-01-16 11:00:00 8.3 4 Sudeste 8 Sudeste 0 963.7 0.8 83
2020-01-16 10:00:00 4.1 6 Sudeste 10 Sudeste 0 963.5 0.8 96
2020-01-16 09:00:00 1.8 2 Este 10 Este 0 963.1 1 96
2020-01-16 08:00:00 3.7 7 Este 9 Este 0 962.9 0.4 97
2020-01-16 07:00:00 4.2 3 Este 9 Sudeste 0 962.7 -0.2 97
2020-01-16 06:00:00 5.4 8 Sudeste 10 Sudeste 0 962.1 -0.6 96
2020-01-16 05:00:00 6.5 7 Sur 9 Sur 0 962.5 -0.2 95
2020-01-16 04:00:00 7.2 7 Sudeste 8 Sudeste 0 962.9 -0.2 92
2020-01-16 03:00:00 8.1 5 Sudeste 9 Sudeste 0 962.7 -0.4 92
2020-01-16 02:00:00 8.8 7 Sudeste 9 Sudeste 0 962.7 -0.2 91
2020-01-16 01:00:00 8.8 5 Sudeste 8 Sudeste 0.1 963.1 0.5 92
2020-01-16 00:00:00 9.3 7 Sudeste 13 Sudeste 0.1 963.1 0.5 91
2020-01-15 23:00:00 9.5 8 Sudeste 13 Sudeste 0 962.9 0.4 89
2020-01-15 22:00:00 9.5 8 Sudeste 11 Sudeste 0.1 962.6 0.4 90
2020-01-15 21:00:00 9.9 6 Sudeste 10 Sudeste 0 962.6 0.6 88
2020-01-15 20:00:00 10.3 6 Sudeste 15 Sur 0 962.5 1.2 87
2020-01-15 19:00:00 11.1 10 Sur 15 Sur 0 962.2 1.1 81
2020-01-15 18:00:00 12 12 Sur 17 Sur 0 962 1.3 77
2020-01-15 17:00:00 13.4 15 Sur 21 Sudoeste 0 961.3 0.1 70
2020-01-15 16:00:00 13.8 6 Sudoeste 24 Sudoeste 0 961.1 -0.4 68
2020-01-15 15:00:00 13.1 14 Sudoeste 26 Sur 0 960.7 -1.5 71
2020-01-15 14:00:00 11.8 16 Sudoeste 26 Sudoeste 0 961.2 -0.5 71
2020-01-15 13:00:00 11.4 16 Sur 29 Sur 0 961.5 0.5 71
2020-01-15 12:00:00 10.8 13 Sudoeste 21 Sudoeste 0 962.2 2.3 70
2020-01-15 11:00:00 8.2 9 Sudeste 15 Este 0 961.7 2 81
2020-01-15 10:00:00 6.9 3 Sur 17 Norte 0 961 1.9 84
2020-01-15 09:00:00 2.1 10 Este 14 Este 0 959.9 1.2 96
2020-01-15 08:00:00 1.7 8 Este 10 Este 0 959.7 0.9 94
2020-01-15 07:00:00 3 8 Este 13 Este 0 959.1 0 95
2020-01-15 06:00:00 3.1 9 Este 13 Este 0 958.7 -0.4 94
2020-01-15 05:00:00 3.4 11 Este 14 Este 0 958.8 -0.2 91
2020-01-15 04:00:00 3.8 7 Este 10 Este 0 959.1 -0.1 90
2020-01-15 03:00:00 5.3 8 Sudeste 14 Sur 0 959.1 -0.3 89
2020-01-15 02:00:00 7 10 Sur 17 Sur 0 959 -0.2 83
2020-01-15 01:00:00 6.8 8 Sudoeste 19 Sudoeste 0 959.2 -0.1 83
2020-01-15 00:00:00 6.4 6 Sur 13 Sur 0 959.4 0.2 83
2020-01-14 23:00:00 6.7 11 Sur 15 Sur 0 959.2 0.1 81
2020-01-14 22:00:00 6.5 7 Sur 13 Sudeste 0 959.3 0.7 84
2020-01-14 21:00:00 7 7 Sudeste 17 Sur 0 959.2 0.9 81
2020-01-14 20:00:00 8.3 9 Sur 20 Sur 0 959.1 1.1 76
2020-01-14 19:00:00 9.6 5 Sur 13 Sudoeste 0 958.6 0.7 70
2020-01-14 18:00:00 10.7 6 Sur 11 Sudoeste 0 958.3 0 66
2020-01-14 17:00:00 11.7 4 Sur 10 Sur 0 958 -0.8 59
2020-01-14 16:00:00 12.1 4 Sur 10 Sudoeste 0 957.9 -1.6 56
2020-01-14 15:00:00 11.9 4 Sur 15 Oeste 0 958.3 -1.9 59
2020-01-14 14:00:00 11.3 8 Oeste 15 Oeste 0 958.8 -1.2 61
2020-01-14 13:00:00 10.2 4 Sur 12 Sur 0 959.5 0 69
2020-01-14 12:00:00 5.8 5 Norte 13 Noroeste 0 960.2 1.1 88
2020-01-14 11:00:00 6 2 Sur 4 Sur 0 960 0.8 90
2020-01-14 10:00:00 2.3 2 Sudeste 7 Sudeste 0.1 959.5 0.6 98
2020-01-14 09:00:00 -1.6 6 Sudeste 7 Sudeste 0 959.1 0.4 97
2020-01-14 08:00:00 -1.3 6 Sudeste 8 Sudeste 0 959.2 0.3 97
2020-01-14 07:00:00 -0.7 6 Sudeste 8 Sur 0 958.9 -0.2 97
2020-01-14 06:00:00 -1.5 6 Sudeste 8 Sudeste 0 958.7 -0.7 96
2020-01-14 05:00:00 -0.2 0 Calma 5 Sur 0 958.9 -0.7 95
2020-01-14 04:00:00 -0.4 3 Sur 6 Sudeste 0 959.1 -1.1 95
2020-01-14 03:00:00 1.3 0 Calma 9 Sudoeste 0 959.4 -1 96
2020-01-14 02:00:00 1.7 6 Sur 8 Sur 0 959.6 -0.5 96
2020-01-14 01:00:00 1 0 Calma 5 Oeste 0 960.2 0.1 90
2020-01-14 00:00:00 2.7 2 Oeste 9 Sur 0 960.4 0.1 88
2020-01-13 23:00:00 2.6 6 Sur 9 Sur 0 960.1 -0.1 86
2020-01-13 22:00:00 3.2 6 Sur 12 Sudeste 0 960.1 0.2 83
2020-01-13 21:00:00 3.4 7 Sudeste 10 Sudeste 0 960.3 0.3 84
2020-01-13 20:00:00 4.9 6 Sur 8 Sur 0 960.2 0 80
2020-01-13 19:00:00 7.5 3 Este 4 Norte 0 959.9 -0.3 73
2020-01-13 18:00:00 9.7 4 Norte 8 Norte 0 960 -0.4 61
2020-01-13 17:00:00 10.5 5 Norte 14 Norte 0 960.2 -0.9 60
2020-01-13 16:00:00 11.1 12 Noroeste 17 Noroeste 0 960.2 -2 52
2020-01-13 15:00:00 11.5 9 Oeste 17 Oeste 0 960.4 -2.5 52
2020-01-13 14:00:00 10.8 6 Noroeste 13 Oeste 0 961.1 -2 65
2020-01-13 13:00:00 9.3 8 Noroeste 12 Norte 0 962.2 -0.5 73
2020-01-13 12:00:00 8.6 2 Sudeste 6 Sudeste 0 962.9 0.3 74
2020-01-13 11:00:00 4.9 2 Noroeste 6 Noroeste 0 963.1 0.7 89
2020-01-13 10:00:00 2 4 Sudeste 5 Sudeste 0 962.7 0.7 94
2020-01-13 09:00:00 -1.1 3 Sur 5 Sur 0 962.6 0.4 96
2020-01-13 08:00:00 -1.3 4 Sudeste 8 Sudeste 0 962.4 0.1 96
2020-01-13 07:00:00 -1.3 0 Calma 5 Noroeste 0 962 -0.9 93
2020-01-13 06:00:00 -0.8 4 Noroeste 6 Noroeste 0 962.2 -1.2 94
2020-01-13 05:00:00 0.5 3 Sur 6 Sur 0 962.3 -1.1 96
2020-01-13 04:00:00 -0.4 6 Sudeste 7 Sudeste 0 962.9 -1.3 94
2020-01-13 03:00:00 1.1 0 Calma -- -- 0 963.4 -1.4 94
2020-01-13 02:00:00 0.9 0 Calma -- -- 0 963.4 -1.4 93
2020-01-13 01:00:00 1.6 0 Calma 2 Sur 0 964.2 -0.5 93
2020-01-13 00:00:00 2.4 3 Sudoeste 6 Sudoeste 0 964.8 0.2 92
2020-01-12 23:00:00 2.5 4 Sudoeste 5 Sudoeste 0 964.8 0.4 88
2020-01-12 22:00:00 3.3 3 Sudoeste 4 Oeste 0 964.7 0.3 88
2020-01-12 21:00:00 4.2 2 Oeste 5 Noroeste 0 964.6 0.8 84
2020-01-12 20:00:00 6.1 4 Noroeste 7 Norte 0 964.4 0.4 80
2020-01-12 19:00:00 7.2 4 Noroeste 9 Noroeste 0 964.4 0.4 78
2020-01-12 18:00:00 11.1 3 Noroeste 8 Noroeste 0 963.8 -0.4 54
2020-01-12 17:00:00 12 6 Noroeste 11 Norte 0 964 -1.1 49
2020-01-12 16:00:00 12.2 5 Noroeste 9 Noroeste 0 964 -1.9 49
2020-01-12 15:00:00 11.9 5 Noroeste 9 Noroeste 0 964.2 -2.6 54
2020-01-12 14:00:00 11.4 0 Calma 8 Noroeste 0 965.1 -1.8 58
2020-01-12 13:00:00 10.4 2 Noroeste 7 Noroeste 0 965.9 -0.5 65
2020-01-12 12:00:00 8.2 2 Noroeste 5 Noroeste 0 966.8 0.3 78
2020-01-12 11:00:00 6 0 Calma 4 Nordeste 0 966.9 0.8 85
2020-01-12 10:00:00 2 0 Calma 5 Sur 0 966.4 0.5 93
2020-01-12 09:00:00 -1 0 Calma 4 Sur 0 966.5 0.8 95
2020-01-12 08:00:00 0.8 2 Norte 5 Noroeste 0 966.1 0.3 94
2020-01-12 07:00:00 0.3 0 Calma 3 Sudoeste 0 965.9 -0.3 94
2020-01-12 06:00:00 0.5 0 Calma 3 Sur 0 965.7 -0.4 94
2020-01-12 05:00:00 0.8 0 Calma 3 Sudoeste 0 965.8 0 93
2020-01-12 04:00:00 1.6 3 Oeste 5 Oeste 0 966.2 0.1 92
2020-01-12 03:00:00 2 0 Calma 6 Oeste 0 966.1 0 89
2020-01-12 02:00:00 1.5 5 Oeste 6 Oeste 0 965.8 -0.2 88
2020-01-12 01:00:00 3 4 Oeste 7 Oeste 0 966.1 0.1 85
2020-01-12 00:00:00 2.3 4 Sudoeste 5 Sudoeste 0 966.1 0.5 87
2020-01-11 23:00:00 3.1 3 Oeste 5 Oeste 0 966 0.8 84
2020-01-11 22:00:00 4.6 0 Calma 3 Noroeste 0 966 1.2 76
2020-01-11 21:00:00 5.4 3 Oeste 9 Nordeste 0 965.6 1.2 74
2020-01-11 20:00:00 8.9 8 Nordeste 10 Nordeste 0 965.2 0.9 60
2020-01-11 19:00:00 9.5 5 Nordeste 8 Nordeste 0 964.8 0.6 57
2020-01-11 18:00:00 10.7 3 Nordeste 7 Nordeste 0 964.4 0 54
2020-01-11 17:00:00 12.4 0 Calma 9 Nordeste 0 964.3 -0.5 50
2020-01-11 16:00:00 11.9 5 Nordeste 12 Nordeste 0 964.2 -1.6 51
2020-01-11 15:00:00 11.4 5 Nordeste 13 Este 0 964.4 -2 51
2020-01-11 14:00:00 11.1 10 Este 15 Este 0 964.8 -1.5 53
2020-01-11 13:00:00 9.6 6 Nordeste 13 Nordeste 0 965.8 -0.2 58
2020-01-11 12:00:00 7.9 4 Nordeste 9 Este 0 966.4 0.7 63
2020-01-11 11:00:00 5.8 3 Este 8 Nordeste 0 966.3 1.2 71
2020-01-11 10:00:00 2.9 4 Nordeste 14 Norte 0 966 1.1 83
2020-01-11 09:00:00 1.1 12 Norte 13 Norte 0 965.7 1 85
2020-01-11 08:00:00 1.4 8 Norte 10 Norte 0 965.1 0.1 83
2020-01-11 07:00:00 1.5 5 Norte 15 Nordeste 0 964.9 0 79
2020-01-11 06:00:00 4.3 9 Nordeste 16 Nordeste 0 964.7 -0.3 68
2020-01-11 05:00:00 2.4 4 Este 8 Sudeste 0 965 0.6 78
2020-01-11 04:00:00 1.7 2 Este 18 Norte 0 964.9 0 77
2020-01-11 03:00:00 2.8 3 Noroeste 11 Norte 0 965 0.1 73
2020-01-11 02:00:00 3.8 3 Noroeste 10 Nordeste 0 964.4 0 69
2020-01-11 01:00:00 7 8 Nordeste 11 Nordeste 0 964.9 0.7 57
2020-01-11 00:00:00 5.1 6 Este 8 Nordeste 0 964.9 1.1 64
2020-01-10 23:00:00 3.4 4 Este 7 Este 0 964.4 1.1 69
2020-01-10 22:00:00 5 3 Este 9 Nordeste 0 964.2 1.6 64
2020-01-10 21:00:00 7.7 5 Nordeste 12 Nordeste 0 963.8 1.8 53
2020-01-10 20:00:00 8.2 10 Nordeste 18 Nordeste 0 963.3 1.6 50
2020-01-10 19:00:00 8.4 12 Nordeste 18 Nordeste 0 962.6 1.5 51
2020-01-10 18:00:00 10 6 Nordeste 23 Nordeste 0 962 0.7 55
2020-01-10 17:00:00 11.7 12 Nordeste 30 Este 0 961.7 -0.6 45
2020-01-10 16:00:00 12 16 Este 25 Nordeste 0 961.1 -1.5 49
2020-01-10 15:00:00 11.8 15 Nordeste 26 Nordeste 0 961.3 -1.5 49
2020-01-10 14:00:00 11.3 14 Nordeste 23 Nordeste 0 962.3 -0.9 56
2020-01-10 13:00:00 10.4 13 Este 20 Este 0 962.6 -0.1 72
2020-01-10 12:00:00 8.6 5 Nordeste 11 Norte 0 962.8 0.8 82
2020-01-10 11:00:00 6 7 Noroeste 9 Noroeste 0 963.2 1.6 93
2020-01-10 10:00:00 4.1 3 Noroeste 5 Noroeste 0 962.7 1.6 96
2020-01-10 09:00:00 2.5 2 Oeste 5 Oeste 0 962 1.2 96
2020-01-10 08:00:00 3.4 3 Oeste 6 Noroeste 0 961.6 0.7 96
2020-01-10 07:00:00 4.3 5 Oeste 11 Oeste 0 961.1 0 94
2020-01-10 06:00:00 6.6 10 Oeste 17 Noroeste 0 960.8 -0.5 93
2020-01-10 05:00:00 7.6 10 Noroeste 18 Oeste 0 960.9 -0.1 93
2020-01-10 04:00:00 8.4 7 Oeste 21 Oeste 0 961.1 -0.5 94
2020-01-10 03:00:00 8 13 Oeste 21 Noroeste 0 961.3 -1 95
2020-01-10 02:00:00 7.7 9 Sudoeste 14 Oeste 0 961 -1.5 91
2020-01-10 01:00:00 7.1 9 Oeste 15 Oeste 0 961.6 -1.1 89
2020-01-10 00:00:00 4.8 5 Oeste 9 Sudoeste 0 962.3 0 90
2020-01-09 23:00:00 5.3 4 Oeste 7 Oeste 0 962.5 0.4 92
2020-01-09 22:00:00 5.9 5 Oeste 9 Oeste 0 962.7 1 88
2020-01-09 21:00:00 7.4 4 Noroeste 9 Oeste 0 962.3 0.4 83
2020-01-09 20:00:00 7.2 3 Oeste 8 Noroeste 0 962.1 1.1 84
2020-01-09 19:00:00 8.7 0 Calma 9 Noroeste 0 961.7 0.7 77
2020-01-09 18:00:00 10.7 8 Noroeste 9 Noroeste 0 961.9 0.1 72
2020-01-09 17:00:00 13.5 7 Oeste 11 Oeste 0 961 -1.3 58
2020-01-09 16:00:00 13.5 5 Oeste 13 Noroeste 0 961 -1.4 59
2020-01-09 15:00:00 13.4 11 Noroeste 18 Noroeste 0 961.8 -1.5 57
2020-01-09 14:00:00 12.7 12 Oeste 20 Oeste 0 962.3 -1.3 67
2020-01-09 13:00:00 12.7 6 Sudoeste 13 Sudoeste 0 962.4 -0.6 56
2020-01-09 12:00:00 10.2 3 Sur 9 Sur 0 963.3 0.8 75
2020-01-09 11:00:00 7.4 0 Calma 4 Noroeste 0 963.6 1.1 94
2020-01-09 10:00:00 3.9 0 Calma 5 Oeste 0 963 0.7 98
2020-01-09 09:00:00 0.3 3 Sudoeste 5 Sudoeste 0 962.5 0.3 97
2020-01-09 08:00:00 0.3 0 Calma 5 Noroeste 0 962.5 0.2 96
2020-01-09 07:00:00 1.9 0 Calma 2 Sudoeste 0 962.3 -0.3 96
2020-01-09 06:00:00 2.6 2 Sur 5 Sudeste 0 962.2 -0.5 97
2020-01-09 05:00:00 2.3 5 Sudeste 6 Sudeste 0 962.3 -0.5 95
2020-01-09 04:00:00 2.6 4 Sudeste 7 Sur 0 962.6 -0.3 95
2020-01-09 03:00:00 4 3 Sudoeste 4 Sudoeste 0 962.7 -0.6 94
2020-01-09 02:00:00 3.8 3 Sudoeste 5 Oeste 0 962.8 -0.4 92
2020-01-09 01:00:00 4 2 Oeste 8 Oeste 0 962.9 -0.3 84
2020-01-09 00:00:00 5.2 5 Oeste 8 Oeste 0 963.3 0.4 78
2020-01-08 23:00:00 5.9 3 Oeste 6 Sudoeste 0 963.2 0.3 71
2020-01-08 22:00:00 6.1 4 Sudoeste 5 Sudoeste 0 963.2 0.5 73
2020-01-08 21:00:00 5.6 3 Sudoeste 5 Sudoeste 0 962.9 0.2 77
2020-01-08 20:00:00 8.9 3 Noroeste 5 Noroeste 0 962.9 0.1 67
2020-01-08 19:00:00 11.5 2 Norte 6 Noroeste 0 962.7 0 56
2020-01-08 18:00:00 13.4 4 Norte 6 Norte 0 962.7 0 53
2020-01-08 17:00:00 15.4 2 Norte 5 Norte 0 962.8 -0.5 49
2020-01-08 16:00:00 15.7 3 Norte 6 Norte 0 962.7 -1.4 49
2020-01-08 15:00:00 15.2 3 Noroeste 6 Noroeste 0 962.7 -2.2 48
2020-01-08 14:00:00 14 0 Calma 7 Noroeste 0 963.3 -2 63
2020-01-08 13:00:00 11 4 Noroeste 7 Noroeste 0 964.1 -0.7 76
2020-01-08 12:00:00 8.6 2 Noroeste 6 Norte 0 964.9 0.7 84
2020-01-08 11:00:00 4.8 0 Calma 5 Noroeste 0 965.3 1 96
2020-01-08 10:00:00 3.7 3 Noroeste 4 Norte 0 964.8 0.5 96
2020-01-08 09:00:00 1.5 3 Oeste 4 Sudoeste 0 964.2 -0.1 97
2020-01-08 08:00:00 0.8 2 Sur 5 Sudeste 0 964.3 0 95
2020-01-08 07:00:00 1 3 Sudeste 4 Sudeste 0 964.3 -0.3 95
2020-01-08 06:00:00 1.9 0 Calma 9 Norte 0 964.3 -0.6 92
2020-01-08 05:00:00 3.1 4 Oeste 4 Noroeste 0 964.3 -0.6 93
2020-01-08 04:00:00 2.5 0 Calma 5 Sudoeste 0 964.6 -0.4 93
2020-01-08 03:00:00 3 4 Sudoeste 6 Sudoeste 0 964.9 -0.4 93
2020-01-08 02:00:00 3.6 0 Calma 4 Oeste 0 964.9 -0.7 90
2020-01-08 01:00:00 5 3 Oeste 6 Oeste 0 965 -0.5 88
2020-01-08 00:00:00 5.2 3 Oeste 7 Oeste 0 965.3 -0.1 86
2020-01-07 23:00:00 5.6 6 Oeste 8 Oeste 0 965.6 0.3 85
2020-01-07 22:00:00 6.1 3 Oeste 7 Oeste 0 965.5 0.4 82
2020-01-07 21:00:00 6.9 6 Oeste 8 Oeste 0 965.4 0.3 79
2020-01-07 20:00:00 8.4 4 Oeste 6 Oeste 0 965.3 0.5 73
2020-01-07 19:00:00 10.2 3 Noroeste 5 Noroeste 0 965.1 0.2 66
2020-01-07 18:00:00 12.6 4 Noroeste 7 Norte 0 965.1 0 61
2020-01-07 17:00:00 14.4 5 Norte 8 Noroeste 0 964.8 -0.9 53
2020-01-07 16:00:00 14.4 5 Noroeste 13 Noroeste 0 964.9 -1.3 58
2020-01-07 15:00:00 13.4 7 Noroeste 12 Noroeste 0 965.1 -1.7 62
2020-01-07 14:00:00 11.5 6 Norte 10 Norte 0 965.7 -1.2 73
2020-01-07 13:00:00 10.3 4 Noroeste 7 Noroeste 0 966.2 -0.6 77
2020-01-07 12:00:00 9 3 Noroeste 8 Oeste 0 966.8 0.5 83
2020-01-07 11:00:00 5.8 0 Calma -- -- 0 966.9 0.7 97
2020-01-07 10:00:00 2.1 0 Calma -- -- 0 966.8 1 98
2020-01-07 09:00:00 -0.7 0 Calma 4 Sur 0 966.3 0.6 97
2020-01-07 08:00:00 -0.2 0 Calma 6 Noroeste 0 966.2 0.3 97
2020-01-07 07:00:00 1.9 5 Noroeste 8 Noroeste 0 965.8 -0.1 97
2020-01-07 06:00:00 2.8 4 Oeste 6 Sur 0 965.7 0.1 98
2020-01-07 05:00:00 1.3 6 Sur 8 Sur 0 965.9 0.3 97
2020-01-07 04:00:00 2.1 0 Calma 5 Sudeste 0 965.9 0.3 96
2020-01-07 03:00:00 2.3 2 Nordeste 5 Norte 0 965.6 -0.1 92
2020-01-07 02:00:00 4.6 3 Oeste 7 Sudoeste 0 965.6 -0.2 94
2020-01-07 01:00:00 3.3 6 Sudoeste 8 Sudoeste 0 965.6 0.4 93
2020-01-07 00:00:00 3.8 4 Sudoeste 7 Sudoeste 0 965.7 1 93
2020-01-06 23:00:00 4.2 3 Oeste 5 Sudoeste 0 965.8 1.6 91
2020-01-06 22:00:00 5.1 3 Oeste 7 Noroeste 0 965.2 1.3 86
2020-01-06 21:00:00 6.2 5 Noroeste 8 Noroeste 0 964.7 1.3 85
2020-01-06 20:00:00 7.2 2 Noroeste 5 Noroeste 0 964.2 0.8 84
2020-01-06 19:00:00 8.8 3 Noroeste 4 Noroeste 0 963.9 0.9 79
2020-01-06 18:00:00 11.3 2 Norte 10 Noroeste 0 963.4 0.4 68
2020-01-06 17:00:00 13.3 8 Noroeste 11 Noroeste 0 963.4 -0.1 58
2020-01-06 16:00:00 13.8 3 Norte 7 Noroeste 0 963 -1.5 54
2020-01-06 15:00:00 13.6 3 Noroeste 10 Noroeste 0 963 -2.1 55
2020-01-06 14:00:00 13.1 0 Calma 7 Noroeste 0 963.5 -1.6 62
2020-01-06 13:00:00 9.6 2 Noroeste 9 Noroeste 0 964.5 0.1 79
2020-01-06 12:00:00 7.7 3 Noroeste 7 Noroeste 0 965.1 1 88
2020-01-06 11:00:00 4.2 0 Calma -- -- 0.1 965.1 1.6 97
2020-01-06 10:00:00 1.2 0 Calma -- -- 0 964.4 1.2 98